createdAt,value
2019-04-21T00:01:46.915Z,50.64
2019-04-21T00:04:24.859Z,52.24
2019-04-21T00:07:05.877Z,52.55
2019-04-21T00:09:40.046Z,51.61
2019-04-21T00:12:02.470Z,51.49
2019-04-21T00:14:27.553Z,52.39
2019-04-21T00:16:55.569Z,52.56
2019-04-21T00:19:39.505Z,53.41
2019-04-21T00:22:23.212Z,53.59
2019-04-21T00:24:56.819Z,53.31
2019-04-21T00:27:28.528Z,54.24
2019-04-21T00:30:04.508Z,53.64
2019-04-21T00:32:28.176Z,53.89
2019-04-21T00:34:52.251Z,53.74
2019-04-21T00:37:24.137Z,55.01
2019-04-21T00:40:03.689Z,55.29
2019-04-21T00:42:37.393Z,55.63
2019-04-21T00:45:01.872Z,55.81
2019-04-21T00:47:43.139Z,55.75
2019-04-21T00:50:20.552Z,56.41
2019-04-21T00:52:56.617Z,56.82
2019-04-21T00:55:29.410Z,56.21
2019-04-21T00:58:00.076Z,56.63
2019-04-21T01:00:22.258Z,56.79
2019-04-21T01:02:57.631Z,56.76
2019-04-21T01:05:26.749Z,57.19
2019-04-21T01:07:50.335Z,57.18
2019-04-21T01:10:21.002Z,57.04
2019-04-21T01:13:00.533Z,56.32
2019-04-21T01:18:01.503Z,56.54
2019-04-21T01:20:16.732Z,56.61
2019-04-21T01:22:39.423Z,56.75
2019-04-21T01:25:19.018Z,56.82
2019-04-21T01:27:53.912Z,57.40
2019-04-21T01:30:28.569Z,57.59
2019-04-21T01:33:00.080Z,57.40
2019-04-21T01:35:35.428Z,57.07
2019-04-21T01:38:03.083Z,56.58
2019-04-21T01:40:37.663Z,56.48
2019-04-21T01:43:04.807Z,56.99
2019-04-21T01:45:35.241Z,57.32
2019-04-21T01:48:01.182Z,57.63
2019-04-21T01:50:39.307Z,57.70
2019-04-21T01:53:17.318Z,57.75
2019-04-21T01:56:04.914Z,57.39
2019-04-21T01:58:25.688Z,57.74
2019-04-21T02:01:00.886Z,57.12
2019-04-21T02:06:19.478Z,57.28
2019-04-21T02:08:36.413Z,57.83
2019-04-21T02:13:46.785Z,58.40
2019-04-21T02:16:11.326Z,58.24
2019-04-21T02:18:39.387Z,58.49
2019-04-21T02:21:00.397Z,58.52
2019-04-21T02:26:16.075Z,58.42
2019-04-21T02:28:51.726Z,57.75
2019-04-21T02:31:28.967Z,58.64
2019-04-21T02:36:39.725Z,58.87
2019-04-21T02:41:32.725Z,58.68
2019-04-21T02:44:04.018Z,59.02
2019-04-21T02:46:36.270Z,58.79
2019-04-21T02:51:33.673Z,58.98
2019-04-21T02:54:32.330Z,58.96
2019-04-21T02:56:35.229Z,59.26
2019-04-21T02:59:10.891Z,59.23
2019-04-21T03:02:04.087Z,59.32
2019-04-21T03:04:34.774Z,59.25
2019-04-21T03:12:22.552Z,58.85
2019-04-21T03:15:03.956Z,59.09
2019-04-21T03:20:03.020Z,58.72
2019-04-21T03:30:18.923Z,58.71
2019-04-21T03:33:08.988Z,58.36
2019-04-21T03:40:07.995Z,58.86
2019-04-21T03:45:15.956Z,59.11
2019-04-21T03:47:39.569Z,59.57
2019-04-21T03:50:29.681Z,59.70
2019-04-21T03:52:45.665Z,59.67
2019-04-21T04:03:35.379Z,60.05
2019-04-21T04:11:43.794Z,61.04
2019-04-21T04:14:33.504Z,60.52
2019-04-21T04:17:06.443Z,60.67
2019-04-21T04:19:34.584Z,60.67
2019-04-21T04:22:09.364Z,60.02
2019-04-21T04:26:45.399Z,60.86
2019-04-21T04:29:19.250Z,61.50
2019-04-21T04:31:42.743Z,61.40
2019-04-21T04:34:24.479Z,61.67
2019-04-21T04:45:04.334Z,61.22
2019-04-21T04:52:27.818Z,60.48
2019-04-21T04:57:28.400Z,59.96
2019-04-21T04:59:49.600Z,59.35
2019-04-21T05:02:28.077Z,59.30
2019-04-21T05:05:11.487Z,59.78
2019-04-21T05:07:27.359Z,59.32
2019-04-21T05:09:57.556Z,58.00
2019-04-21T05:12:38.475Z,59.08
2019-04-21T05:15:09.675Z,58.44
2019-04-21T05:17:50.829Z,57.36
2019-04-21T05:22:47.683Z,57.26
2019-04-21T05:25:06.917Z,56.45
2019-04-21T05:27:43.824Z,56.26
2019-04-21T05:30:52.015Z,56.19
2019-04-21T05:33:13.556Z,55.17
2019-04-21T05:35:55.993Z,54.89
2019-04-21T05:38:27.528Z,54.26
2019-04-21T05:40:55.238Z,53.73
2019-04-21T05:43:32.419Z,53.33
2019-04-21T05:46:07.722Z,52.98
2019-04-21T05:48:39.227Z,51.57
2019-04-21T05:51:08.862Z,51.82
2019-04-21T05:53:42.181Z,51.54
2019-04-21T05:56:17.303Z,51.10
2019-04-21T05:58:44.548Z,50.71
2019-04-21T06:01:23.776Z,50.16
2019-04-21T06:03:53.167Z,49.77
2019-04-21T06:06:20.703Z,49.19
2019-04-21T06:08:47.821Z,48.54
2019-04-21T06:13:55.595Z,45.86
2019-04-21T06:16:21.468Z,42.10
2019-04-21T06:18:53.184Z,40.24
2019-04-21T06:21:21.948Z,39.64
2019-04-21T06:23:49.721Z,39.28
2019-04-21T06:28:50.462Z,34.94
2019-04-21T06:34:08.185Z,30.08
2019-04-21T06:36:54.130Z,27.41
2019-04-21T06:39:15.402Z,25.20
2019-04-21T06:44:08.428Z,21.35
2019-04-21T06:46:34.941Z,19.90
2019-04-21T06:49:02.774Z,19.48
2019-04-21T06:51:48.437Z,19.15
2019-04-21T06:54:10.205Z,20.00
2019-04-21T06:56:43.881Z,18.89
2019-04-21T06:59:06.679Z,17.75
2019-04-21T07:01:43.912Z,17.48
2019-04-21T07:06:46.964Z,16.95
2019-04-21T07:09:18.964Z,17.60
2019-04-21T07:11:36.690Z,16.92
2019-04-21T07:14:29.312Z,17.05
2019-04-21T07:16:48.044Z,16.62
2019-04-21T07:21:43.028Z,16.32
2019-04-21T07:24:14.708Z,16.23
2019-04-21T07:26:47.627Z,17.18
2019-04-21T07:29:14.152Z,16.82
2019-04-21T07:34:17.298Z,17.56
2019-04-21T07:36:51.891Z,17.44
2019-04-21T07:39:15.290Z,16.22
2019-04-21T07:41:40.988Z,17.40
2019-04-21T07:44:04.704Z,17.05
2019-04-21T07:46:38.492Z,18.69
2019-04-21T07:49:32.686Z,19.95
2019-04-21T07:52:22.107Z,20.99
2019-04-21T07:55:05.506Z,19.77
2019-04-21T07:57:18.782Z,20.05
2019-04-21T08:00:12.513Z,22.65
2019-04-21T08:02:22.220Z,22.51
2019-04-21T08:05:02.450Z,24.83
2019-04-21T08:07:40.085Z,22.74
2019-04-21T08:09:57.055Z,22.31
2019-04-21T08:12:24.640Z,22.29
2019-04-21T08:15:01.503Z,22.95
2019-04-21T08:17:30.724Z,23.25
2019-04-21T08:19:53.029Z,24.87
2019-04-21T08:22:32.126Z,25.71
2019-04-21T08:25:03.184Z,26.34
2019-04-21T08:27:35.420Z,26.09
2019-04-21T08:29:57.994Z,25.65
2019-04-21T08:32:44.735Z,25.23
2019-04-21T08:35:22.186Z,26.54
2019-04-21T08:37:34.192Z,24.04
2019-04-21T08:40:12.267Z,27.44
2019-04-21T08:42:35.178Z,25.72
2019-04-21T08:45:12.127Z,25.39
2019-04-21T08:47:41.469Z,25.74
2019-04-21T08:50:11.250Z,24.31
2019-04-21T08:55:22.419Z,23.31
2019-04-21T08:58:00.415Z,25.41
2019-04-21T09:00:32.529Z,23.77
2019-04-21T09:03:11.736Z,22.09
2019-04-21T09:05:37.829Z,23.06
2019-04-21T09:08:10.322Z,22.62
2019-04-21T09:10:45.615Z,24.09
2019-04-21T09:13:04.554Z,25.42
2019-04-21T09:15:35.162Z,22.39
2019-04-21T09:18:04.852Z,24.27
2019-04-21T09:20:47.342Z,21.58
2019-04-21T09:23:08.146Z,22.73
2019-04-21T09:25:48.281Z,21.68
2019-04-21T09:28:13.964Z,23.62
2019-04-21T09:30:24.323Z,22.09
2019-04-21T09:32:56.518Z,21.67
2019-04-21T09:35:24.099Z,21.78
2019-04-21T09:38:00.324Z,21.10
2019-04-21T09:40:30.123Z,22.18
2019-04-21T09:43:02.229Z,23.81
2019-04-21T09:45:26.326Z,23.62
2019-04-21T09:48:02.948Z,20.87
2019-04-21T09:50:26.575Z,20.57
2019-04-21T09:53:00.199Z,20.61
2019-04-21T09:55:32.066Z,20.91
2019-04-21T09:58:07.495Z,20.65
2019-04-21T10:00:30.694Z,20.21
2019-04-21T10:03:02.930Z,19.22
2019-04-21T10:05:29.648Z,20.57
2019-04-21T10:08:01.054Z,19.47
2019-04-21T10:10:29.715Z,20.35
2019-04-21T10:12:58.581Z,20.32
2019-04-21T10:15:28.289Z,20.04
2019-04-21T10:18:00.595Z,20.47
2019-04-21T10:20:30.791Z,16.94
2019-04-21T10:22:59.716Z,15.93
2019-04-21T10:25:28.574Z,16.68
2019-04-21T10:27:57.304Z,17.38
2019-04-21T10:30:26.665Z,17.12
2019-04-21T10:32:56.448Z,18.56
2019-04-21T10:35:26.277Z,18.68
2019-04-21T10:38:06.726Z,17.17
2019-04-21T10:40:27.501Z,16.48
2019-04-21T10:42:58.266Z,15.56
2019-04-21T10:45:28.663Z,16.02
2019-04-21T10:47:58.806Z,16.07
2019-04-21T10:50:28.747Z,15.49
2019-04-21T10:53:16.785Z,16.95
2019-04-21T10:56:00.419Z,17.12
2019-04-21T10:58:28.637Z,17.33
2019-04-21T11:01:04.252Z,17.55
2019-04-21T11:04:02.678Z,15.99
2019-04-21T11:06:32.603Z,16.66
2019-04-21T11:09:03.080Z,15.18
2019-04-21T11:11:32.245Z,17.54
2019-04-21T11:14:02.262Z,17.76
2019-04-21T11:16:31.438Z,16.15
2019-04-21T11:19:00.429Z,16.63
2019-04-21T11:21:29.332Z,16.96
2019-04-21T11:23:58.507Z,17.00
2019-04-21T11:26:27.621Z,16.87
2019-04-21T11:28:56.853Z,16.19
2019-04-21T11:31:27.170Z,16.40
2019-04-21T11:33:57.423Z,16.72
2019-04-21T11:36:27.097Z,17.23
2019-04-21T11:39:16.920Z,17.16
2019-04-21T11:41:31.882Z,16.25
2019-04-21T11:44:01.448Z,17.15
2019-04-21T11:46:30.848Z,17.08
2019-04-21T11:49:00.075Z,17.93
2019-04-21T11:51:29.041Z,16.71
2019-04-21T11:53:59.170Z,16.43
2019-04-21T11:56:28.086Z,16.93
2019-04-21T11:58:57.831Z,16.74
2019-04-21T12:01:27.652Z,16.95
2019-04-21T12:03:57.843Z,18.01
2019-04-21T12:06:32.244Z,17.64
2019-04-21T12:08:59.845Z,16.25
2019-04-21T12:11:27.677Z,17.71
2019-04-21T12:13:56.529Z,17.99
2019-04-21T12:16:25.302Z,17.39
2019-04-21T12:18:54.661Z,15.61
2019-04-21T12:21:23.552Z,18.20
2019-04-21T12:23:52.453Z,17.50
2019-04-21T12:26:22.129Z,17.36
2019-04-21T12:28:57.626Z,19.05
2019-04-21T12:31:54.020Z,18.35
2019-04-21T12:34:23.779Z,17.54
2019-04-21T12:36:53.007Z,17.84
2019-04-21T12:39:23.046Z,17.21
2019-04-21T12:41:51.985Z,16.51
2019-04-21T12:44:20.778Z,17.17
2019-04-21T12:46:49.899Z,16.34
2019-04-21T12:49:19.998Z,17.27
2019-04-21T12:51:49.087Z,17.33
2019-04-21T12:54:17.943Z,17.94
2019-04-21T12:56:47.653Z,17.20
2019-04-21T12:59:16.968Z,18.29
2019-04-21T13:01:45.821Z,16.77
2019-04-21T13:04:15.632Z,17.31
2019-04-21T13:06:45.701Z,17.32
2019-04-21T13:09:18.315Z,16.54
2019-04-21T13:11:45.072Z,16.72
2019-04-21T13:14:13.949Z,16.78
2019-04-21T13:16:43.409Z,16.42
2019-04-21T13:19:13.368Z,17.46
2019-04-21T13:21:43.315Z,16.21
2019-04-21T13:24:12.208Z,17.87
2019-04-21T13:26:48.722Z,17.72
2019-04-21T13:29:12.275Z,17.07
2019-04-21T13:31:42.532Z,17.39
2019-04-21T13:34:11.479Z,17.58
2019-04-21T13:36:41.388Z,17.53
2019-04-21T13:39:58.131Z,18.54
2019-04-21T13:42:11.012Z,17.50
2019-04-21T13:44:33.115Z,18.76
2019-04-21T13:47:02.740Z,17.75
2019-04-21T13:49:31.793Z,19.35
2019-04-21T13:52:00.682Z,18.01
2019-04-21T13:54:29.680Z,18.40
2019-04-21T13:56:58.721Z,17.82
2019-04-21T13:59:28.633Z,19.34
2019-04-21T14:01:58.390Z,17.91
2019-04-21T14:04:27.462Z,18.26
2019-04-21T14:06:56.457Z,17.71
2019-04-21T14:09:35.976Z,17.70
2019-04-21T14:11:57.040Z,16.89
2019-04-21T14:14:26.214Z,17.10
2019-04-21T14:16:56.158Z,17.32
2019-04-21T14:19:25.578Z,17.32
2019-04-21T14:21:55.199Z,16.48
2019-04-21T14:24:24.648Z,16.17
2019-04-21T14:26:54.683Z,16.94
2019-04-21T14:29:23.905Z,16.76
2019-04-21T14:31:52.644Z,15.97
2019-04-21T14:34:21.831Z,14.50
2019-04-21T14:36:50.912Z,15.09
2019-04-21T14:39:20.791Z,16.27
2019-04-21T14:41:50.518Z,16.26
2019-04-21T14:44:20.735Z,16.86
2019-04-21T14:47:00.826Z,16.53
2019-04-21T14:49:37.202Z,16.67
2019-04-21T14:52:14.958Z,16.76
2019-04-21T14:55:09.002Z,16.17
2019-04-21T14:57:39.130Z,16.52
2019-04-21T15:00:11.170Z,16.45
2019-04-21T15:02:41.247Z,14.95
2019-04-21T15:05:11.603Z,16.67
2019-04-21T15:07:41.400Z,16.26
2019-04-21T15:10:17.998Z,17.22
2019-04-21T15:12:41.777Z,16.93
2019-04-21T15:15:11.922Z,16.90
2019-04-21T15:17:44.042Z,16.70
2019-04-21T15:20:15.821Z,16.92
2019-04-21T15:22:44.277Z,16.45
2019-04-21T15:25:14.196Z,17.14
2019-04-21T15:27:43.153Z,17.37
2019-04-21T15:30:12.079Z,16.81
2019-04-21T15:32:41.989Z,17.16
2019-04-21T15:35:11.142Z,18.55
2019-04-21T15:37:39.973Z,18.37
2019-04-21T15:40:19.745Z,19.34
2019-04-21T15:42:39.534Z,17.75
2019-04-21T15:45:08.602Z,17.49
2019-04-21T15:47:38.000Z,18.00
2019-04-21T15:50:14.293Z,17.34
2019-04-21T15:52:43.404Z,18.17
2019-04-21T15:55:17.088Z,17.80
2019-04-21T15:58:06.768Z,16.64
2019-04-21T16:00:50.007Z,17.91
2019-04-21T16:03:20.587Z,19.50
2019-04-21T16:05:50.787Z,18.01
2019-04-21T16:08:20.431Z,23.79
2019-04-21T16:10:56.094Z,22.30
2019-04-21T16:13:21.589Z,20.19
2019-04-21T16:15:50.632Z,21.16
2019-04-21T16:18:20.482Z,20.62
2019-04-21T16:20:50.135Z,18.69
2019-04-21T16:23:20.297Z,21.05
2019-04-21T16:25:50.769Z,21.27
2019-04-21T16:28:19.747Z,19.90
2019-04-21T16:30:48.849Z,20.84
2019-04-21T16:33:18.779Z,22.89
2019-04-21T16:35:47.756Z,20.52
2019-04-21T16:38:17.540Z,20.56
2019-04-21T16:40:55.583Z,20.36
2019-04-21T16:43:18.361Z,21.24
2019-04-21T16:45:48.773Z,24.09
2019-04-21T16:48:19.058Z,22.00
2019-04-21T16:50:48.018Z,21.64
2019-04-21T16:53:34.131Z,21.76
2019-04-21T16:56:15.293Z,22.12
2019-04-21T16:58:50.536Z,23.18
2019-04-21T17:01:26.160Z,21.16
2019-04-21T17:03:55.726Z,23.46
2019-04-21T17:06:24.954Z,25.86
2019-04-21T17:08:54.657Z,23.40
2019-04-21T17:11:28.708Z,21.97
2019-04-21T17:13:56.410Z,23.74
2019-04-21T17:16:48.275Z,24.04
2019-04-21T17:19:05.196Z,24.67
2019-04-21T17:21:26.060Z,24.24
2019-04-21T17:23:56.529Z,26.35
2019-04-21T17:26:26.802Z,23.50
2019-04-21T17:28:56.627Z,25.00
2019-04-21T17:31:26.677Z,23.88
2019-04-21T17:34:01.993Z,25.82
2019-04-21T17:36:27.246Z,28.79
2019-04-21T17:38:56.212Z,29.28
2019-04-21T17:41:33.124Z,30.21
2019-04-21T17:43:56.288Z,29.65
2019-04-21T17:46:36.601Z,27.70
2019-04-21T17:48:56.842Z,29.35
2019-04-21T17:51:40.629Z,28.88
2019-04-21T17:54:19.870Z,29.02
2019-04-21T17:57:05.157Z,27.53
2019-04-21T17:59:48.396Z,28.78
2019-04-21T18:02:02.342Z,28.89
2019-04-21T18:04:33.495Z,28.80
2019-04-21T18:07:27.245Z,29.46
2019-04-21T18:10:07.748Z,28.39
2019-04-21T18:12:26.614Z,28.54
2019-04-21T18:14:52.928Z,25.79
2019-04-21T18:17:14.046Z,27.55
2019-04-21T18:19:45.545Z,26.64
2019-04-21T18:22:37.518Z,27.06
2019-04-21T18:25:09.975Z,28.08
2019-04-21T18:27:36.532Z,27.47
2019-04-21T18:30:24.567Z,26.86
2019-04-21T18:32:56.387Z,26.88
2019-04-21T18:35:35.825Z,26.52
2019-04-21T18:38:14.941Z,26.19
2019-04-21T18:40:40.739Z,28.12
2019-04-21T18:43:51.991Z,27.13
2019-04-21T18:46:22.860Z,28.07
2019-04-21T18:48:45.857Z,27.41
2019-04-21T18:51:20.488Z,27.83
2019-04-21T18:54:14.880Z,28.78
2019-04-21T18:56:27.636Z,26.71
2019-04-21T18:58:56.659Z,27.78
2019-04-21T19:01:28.228Z,26.59
2019-04-21T19:03:56.234Z,28.29
2019-04-21T19:06:43.796Z,27.95
2019-04-21T19:09:10.278Z,27.05
2019-04-21T19:11:44.661Z,27.29
2019-04-21T19:17:11.296Z,30.25
2019-04-21T19:19:41.254Z,28.80
2019-04-21T19:22:01.795Z,29.33
2019-04-21T19:24:29.446Z,30.45
2019-04-21T19:29:51.924Z,31.04
2019-04-21T19:32:05.489Z,30.07
2019-04-21T19:34:22.475Z,29.64
2019-04-21T19:36:51.143Z,29.62
2019-04-21T19:39:33.160Z,28.76
2019-04-21T19:41:58.641Z,32.59
2019-04-21T19:44:33.799Z,31.61
2019-04-21T19:47:10.736Z,32.68
2019-04-21T19:49:39.926Z,33.96
2019-04-21T19:51:59.585Z,33.54
2019-04-21T19:54:30.282Z,33.00
2019-04-21T19:56:55.467Z,32.99
2019-04-21T19:59:32.536Z,34.35
2019-04-21T20:01:56.201Z,33.91
2019-04-21T20:04:34.326Z,35.58
2019-04-21T20:07:05.803Z,35.85
2019-04-21T20:09:46.219Z,34.98
2019-04-21T20:12:21.414Z,35.02
2019-04-21T20:14:57.607Z,35.60
2019-04-21T20:17:13.726Z,35.33
2019-04-21T20:19:36.215Z,36.05
2019-04-21T20:22:05.385Z,37.85
2019-04-21T20:24:37.776Z,38.42
2019-04-21T20:27:13.627Z,39.67
2019-04-21T20:29:57.662Z,39.93
2019-04-21T20:32:35.200Z,39.39
2019-04-21T20:35:02.771Z,40.27
2019-04-21T20:37:25.258Z,39.84
2019-04-21T20:39:47.286Z,39.56
2019-04-21T20:42:24.150Z,37.14
2019-04-21T20:45:19.107Z,40.20
2019-04-21T20:47:22.879Z,39.76
2019-04-21T20:50:01.693Z,40.48
2019-04-21T20:52:35.811Z,39.57
2019-04-21T20:55:02.226Z,39.60
2019-04-21T20:57:30.056Z,39.87
2019-04-21T21:00:05.817Z,39.76
2019-04-21T21:02:42.805Z,40.14
2019-04-21T21:04:59.025Z,39.57
2019-04-21T21:07:44.162Z,41.60
2019-04-21T21:10:16.928Z,42.54
2019-04-21T21:12:56.261Z,42.04
2019-04-21T21:15:10.051Z,42.38
2019-04-21T21:17:52.380Z,41.39
2019-04-21T21:20:19.648Z,41.62
2019-04-21T21:22:47.819Z,40.90
2019-04-21T21:25:32.412Z,42.46
2019-04-21T21:27:49.420Z,42.13
2019-04-21T21:30:21.292Z,42.08
2019-04-21T21:33:04.549Z,43.28
2019-04-21T21:35:26.098Z,43.11
2019-04-21T21:37:59.664Z,43.08
2019-04-21T21:40:30.516Z,44.43
2019-04-21T21:42:45.677Z,43.36
2019-04-21T21:45:18.380Z,43.58
2019-04-21T21:48:01.468Z,43.91
2019-04-21T21:50:26.136Z,43.36
2019-04-21T21:52:58.924Z,43.45
2019-04-21T21:55:19.391Z,44.29
2019-04-21T21:57:52.934Z,43.95
2019-04-21T22:00:23.863Z,44.22
2019-04-21T22:02:56.599Z,44.22
2019-04-21T22:05:26.074Z,44.58
2019-04-21T22:07:54.298Z,44.55
2019-04-21T22:10:23.231Z,45.13
2019-04-21T22:13:02.261Z,45.48
2019-04-21T22:15:26.354Z,45.50
2019-04-21T22:18:14.734Z,45.44
2019-04-21T22:20:43.177Z,46.68
2019-04-21T22:23:01.228Z,47.41
2019-04-21T22:25:31.998Z,47.30
2019-04-21T22:27:58.248Z,47.52
2019-04-21T22:30:36.258Z,46.84
2019-04-21T22:33:04.511Z,47.38
2019-04-21T22:35:37.846Z,48.21
2019-04-21T22:38:17.994Z,49.00
2019-04-21T22:40:46.593Z,48.58
2019-04-21T22:43:11.876Z,49.23
2019-04-21T22:45:31.512Z,48.86
2019-04-21T22:48:07.252Z,49.36
2019-04-21T22:50:34.840Z,49.49
2019-04-21T22:53:07.788Z,49.51
2019-04-21T22:55:35.278Z,49.92
2019-04-21T22:58:05.496Z,49.78
2019-04-21T23:00:42.101Z,51.25
2019-04-21T23:03:10.729Z,51.01
2019-04-21T23:05:38.268Z,51.91
2019-04-21T23:08:09.264Z,52.02
2019-04-21T23:10:41.493Z,51.79
2019-04-21T23:13:13.348Z,51.38
2019-04-21T23:15:46.716Z,51.71
2019-04-21T23:18:27.242Z,51.75
2019-04-21T23:21:00.363Z,51.95
2019-04-21T23:23:28.621Z,51.79
2019-04-21T23:25:56.020Z,51.76
2019-04-21T23:28:30.417Z,52.11
2019-04-21T23:31:00.855Z,52.52
2019-04-21T23:33:16.455Z,53.60
2019-04-21T23:35:49.188Z,54.48
2019-04-21T23:38:21.194Z,54.66
2019-04-21T23:40:54.219Z,54.86
2019-04-21T23:43:21.406Z,54.54
2019-04-21T23:45:48.724Z,54.83
2019-04-21T23:48:30.022Z,55.14
2019-04-21T23:50:55.111Z,55.65
2019-04-21T23:53:19.748Z,56.36
2019-04-21T23:55:49.492Z,55.98
2019-04-21T23:58:24.077Z,55.67
